createdAt,value
2022-11-25T00:00:14.951Z,100788.09
2022-11-25T00:01:20.950Z,100784.59
2022-11-25T00:02:29.576Z,100785.13
2022-11-25T00:03:42.348Z,100784.06
2022-11-25T00:05:03.877Z,100787.28
2022-11-25T00:06:33.571Z,100785.69
2022-11-25T00:07:46.938Z,100789.44
2022-11-25T00:09:02.942Z,100785.66
2022-11-25T00:10:11.274Z,100788.09
2022-11-25T00:11:19.608Z,100786.47
2022-11-25T00:12:31.417Z,100791.06
2022-11-25T00:13:45.012Z,100795.41
2022-11-25T00:14:53.325Z,100790.53
2022-11-25T00:17:37.038Z,100788.91
2022-11-25T00:18:51.509Z,100793.22
2022-11-25T00:20:10.893Z,100790.00
2022-11-25T00:21:28.456Z,100790.28
2022-11-25T00:22:34.421Z,100785.16
2022-11-25T00:23:40.079Z,100792.97
2022-11-25T00:24:43.333Z,100795.13
2022-11-25T00:25:47.874Z,100796.50
2022-11-25T00:26:57.022Z,100801.91
2022-11-25T00:28:06.725Z,100802.69
2022-11-25T00:29:15.257Z,100803.50
2022-11-25T00:30:24.578Z,100798.66
2022-11-25T00:31:37.179Z,100813.19
2022-11-25T00:32:45.272Z,100808.91
2022-11-25T00:33:50.575Z,100809.72
2022-11-25T00:34:55.307Z,100806.19
2022-11-25T00:36:07.472Z,100805.13
2022-11-25T00:37:13.005Z,100806.19
2022-11-25T00:38:21.280Z,100796.75
2022-11-25T00:39:28.895Z,100806.75
2022-11-25T00:40:34.756Z,100804.59
2022-11-25T00:42:00.773Z,100813.22
2022-11-25T00:43:24.237Z,100805.66
2022-11-25T00:44:43.029Z,100811.88
2022-11-25T00:45:46.226Z,100807.03
2022-11-25T00:46:56.540Z,100811.06
2022-11-25T00:47:59.020Z,100806.75
2022-11-25T00:50:22.057Z,100809.47
2022-11-25T00:51:27.625Z,100813.50
2022-11-25T00:52:37.131Z,100804.84
2022-11-25T00:53:58.601Z,100807.81
2022-11-25T00:55:03.779Z,100803.50
2022-11-25T00:56:14.940Z,100805.69
2022-11-25T00:57:23.513Z,100807.28
2022-11-25T00:58:28.608Z,100801.31
2022-11-25T00:59:33.118Z,100807.28
2022-11-25T01:00:40.422Z,100806.47
2022-11-25T01:01:47.671Z,100810.25
2022-11-25T01:02:53.750Z,100805.41
2022-11-25T01:04:02.493Z,100814.59
2022-11-25T01:05:13.839Z,100807.56
2022-11-25T01:06:25.747Z,100811.59
2022-11-25T01:07:31.301Z,100807.81
2022-11-25T01:08:37.935Z,100811.88
2022-11-25T01:09:40.858Z,100818.09
2022-11-25T01:10:51.213Z,100817.03
2022-11-25T01:12:00.458Z,100818.09
2022-11-25T01:13:12.821Z,100820.00
2022-11-25T01:14:15.472Z,100811.09
2022-11-25T01:15:18.619Z,100818.66
2022-11-25T01:16:33.482Z,100812.94
2022-11-25T01:17:38.768Z,100807.81
2022-11-25T01:18:46.513Z,100819.16
2022-11-25T01:19:50.148Z,100817.00
2022-11-25T01:21:19.161Z,100819.16
2022-11-25T01:22:27.382Z,100827.28
2022-11-25T01:23:29.926Z,100822.94
2022-11-25T01:24:37.919Z,100825.38
2022-11-25T01:25:47.095Z,100823.47
2022-11-25T01:26:56.495Z,100825.13
2022-11-25T01:28:04.402Z,100828.09
2022-11-25T01:29:21.087Z,100826.75
2022-11-25T01:30:29.255Z,100834.31
2022-11-25T01:31:39.736Z,100827.81
2022-11-25T01:32:43.021Z,100825.13
2022-11-25T01:33:48.199Z,100827.28
2022-11-25T01:34:56.299Z,100830.81
2022-11-25T01:36:11.629Z,100835.38
2022-11-25T01:37:17.569Z,100840.78
2022-11-25T01:38:30.793Z,100832.69
2022-11-25T01:39:44.552Z,100837.00
2022-11-25T01:40:54.404Z,100841.88
2022-11-25T01:42:02.226Z,100839.19
2022-11-25T01:43:16.120Z,100838.66
2022-11-25T01:44:35.912Z,100838.09
2022-11-25T01:45:39.458Z,100834.84
2022-11-25T01:46:58.994Z,100845.94
2022-11-25T01:48:23.733Z,100845.66
2022-11-25T01:49:46.127Z,100835.91
2022-11-25T01:50:55.917Z,100848.91
2022-11-25T01:52:13.176Z,100845.66
2022-11-25T01:53:23.719Z,100841.59
2022-11-25T01:54:48.299Z,100855.13
2022-11-25T01:56:10.843Z,100851.63
2022-11-25T01:57:26.604Z,100855.91
2022-11-25T01:58:37.899Z,100855.38
2022-11-25T01:59:51.179Z,100850.00
2022-11-25T02:01:11.394Z,100839.16
2022-11-25T02:02:23.362Z,100838.09
2022-11-25T02:03:37.264Z,100838.34
2022-11-25T02:04:50.943Z,100839.97
2022-11-25T02:06:27.422Z,100838.59
2022-11-25T02:07:43.722Z,100838.91
2022-11-25T02:09:02.297Z,100832.94
2022-11-25T02:10:17.238Z,100838.38
2022-11-25T02:11:30.875Z,100842.44
2022-11-25T02:13:02.203Z,100837.00
2022-11-25T02:14:10.251Z,100840.25
2022-11-25T02:15:20.382Z,100845.91
2022-11-25T02:16:24.089Z,100840.25
2022-11-25T02:19:06.390Z,100842.16
2022-11-25T02:20:28.624Z,100839.16
2022-11-25T02:21:56.465Z,100839.97
2022-11-25T02:23:26.078Z,100840.25
2022-11-25T02:24:48.616Z,100838.09
2022-11-25T02:25:55.990Z,100837.00
2022-11-25T02:27:05.635Z,100837.00
2022-11-25T02:28:44.067Z,100836.72
2022-11-25T02:29:48.945Z,100842.13
2022-11-25T02:30:54.994Z,100840.25
2022-11-25T02:32:01.804Z,100837.81
2022-11-25T02:33:10.155Z,100848.34
2022-11-25T02:34:18.980Z,100841.06
2022-11-25T02:35:32.570Z,100841.31
2022-11-25T02:36:42.973Z,100839.16
2022-11-25T02:38:02.138Z,100834.84
2022-11-25T02:39:09.721Z,100832.69
2022-11-25T02:40:24.751Z,100837.53
2022-11-25T02:41:52.000Z,100836.47
2022-11-25T02:43:04.013Z,100842.69
2022-11-25T02:44:11.258Z,100838.91
2022-11-25T02:45:26.496Z,100841.88
2022-11-25T02:46:31.138Z,100848.09
2022-11-25T02:47:39.401Z,100855.91
2022-11-25T02:49:07.930Z,100853.22
2022-11-25T02:50:14.416Z,100851.88
2022-11-25T02:51:33.987Z,100856.47
2022-11-25T02:52:36.819Z,100849.44
2022-11-25T02:53:48.286Z,100859.72
2022-11-25T02:54:55.048Z,100852.13
2022-11-25T02:56:01.611Z,100864.03
2022-11-25T02:57:15.954Z,100858.66
2022-11-25T02:58:22.920Z,100865.66
2022-11-25T02:59:31.840Z,100863.50
2022-11-25T03:00:41.319Z,100870.25
2022-11-25T03:01:49.390Z,100881.88
2022-11-25T03:03:08.577Z,100876.47
2022-11-25T03:04:14.745Z,100880.50
2022-11-25T03:05:18.774Z,100869.97
2022-11-25T03:06:33.251Z,100877.00
2022-11-25T03:07:41.131Z,100878.63
2022-11-25T03:08:46.739Z,100882.41
2022-11-25T03:09:50.437Z,100879.97
2022-11-25T03:11:08.746Z,100891.88
2022-11-25T03:12:20.112Z,100881.88
2022-11-25T03:13:32.065Z,100889.44
2022-11-25T03:14:43.367Z,100891.06
2022-11-25T03:15:47.868Z,100884.84
2022-11-25T03:16:51.024Z,100888.38
2022-11-25T03:17:54.498Z,100886.19
2022-11-25T03:19:00.143Z,100888.09
2022-11-25T03:20:16.975Z,100898.91
2022-11-25T03:21:23.007Z,100888.38
2022-11-25T03:22:29.018Z,100890.53
2022-11-25T03:23:33.226Z,100897.56
2022-11-25T03:24:43.720Z,100893.50
2022-11-25T03:26:06.013Z,100898.34
2022-11-25T03:27:12.270Z,100902.41
2022-11-25T03:28:17.343Z,100901.88
2022-11-25T03:29:24.005Z,100905.13
2022-11-25T03:30:32.827Z,100910.25
2022-11-25T03:31:37.380Z,100911.63
2022-11-25T03:32:44.284Z,100900.78
2022-11-25T03:33:46.773Z,100903.75
2022-11-25T03:34:49.142Z,100908.91
2022-11-25T03:35:53.013Z,100915.66
2022-11-25T03:36:57.393Z,100919.19
2022-11-25T03:38:06.102Z,100912.97
2022-11-25T03:39:12.621Z,100911.88
2022-11-25T03:40:16.179Z,100915.41
2022-11-25T03:41:20.295Z,100913.25
2022-11-25T03:42:23.703Z,100922.44
2022-11-25T03:43:29.857Z,100919.19
2022-11-25T03:44:33.596Z,100911.63
2022-11-25T03:45:36.458Z,100925.69
2022-11-25T03:46:41.390Z,100927.84
2022-11-25T03:47:44.528Z,100929.19
2022-11-25T03:48:53.673Z,100925.66
2022-11-25T03:50:00.239Z,100920.25
2022-11-25T03:52:43.239Z,100925.69
2022-11-25T03:53:52.015Z,100930.00
2022-11-25T03:54:56.146Z,100931.91
2022-11-25T03:56:05.907Z,100931.63
2022-11-25T03:57:11.016Z,100935.97
2022-11-25T03:58:17.712Z,100930.00
2022-11-25T03:59:20.595Z,100933.78
2022-11-25T04:00:26.769Z,100935.41
2022-11-25T04:01:45.058Z,100934.84
2022-11-25T04:03:00.117Z,100942.16
2022-11-25T04:04:07.091Z,100934.84
2022-11-25T04:05:19.468Z,100944.34
2022-11-25T04:06:25.357Z,100933.25
2022-11-25T04:07:32.148Z,100931.09
2022-11-25T04:08:48.751Z,100932.16
2022-11-25T04:09:54.633Z,100933.25
2022-11-25T04:11:03.802Z,100937.59
2022-11-25T04:12:33.968Z,100932.69
2022-11-25T04:13:43.094Z,100940.28
2022-11-25T04:14:45.553Z,100933.78
2022-11-25T04:15:50.020Z,100935.97
2022-11-25T04:16:55.667Z,100937.28
2022-11-25T04:17:59.792Z,100934.59
2022-11-25T04:19:03.669Z,100934.34
2022-11-25T04:20:13.735Z,100938.13
2022-11-25T04:21:23.079Z,100935.94
2022-11-25T04:22:27.797Z,100942.19
2022-11-25T04:23:36.119Z,100939.19
2022-11-25T04:24:45.429Z,100944.03
2022-11-25T04:25:52.920Z,100939.44
2022-11-25T04:27:05.427Z,100942.97
2022-11-25T04:28:11.389Z,100947.84
2022-11-25T04:29:19.190Z,100951.09
2022-11-25T04:30:25.656Z,100949.75
2022-11-25T04:31:31.193Z,100948.09
2022-11-25T04:32:40.076Z,100951.09
2022-11-25T04:33:49.670Z,100950.56
2022-11-25T04:35:00.132Z,100948.38
2022-11-25T04:36:03.583Z,100952.16
2022-11-25T04:37:08.243Z,100943.81
2022-11-25T04:38:16.341Z,100956.50
2022-11-25T04:39:23.639Z,100961.94
2022-11-25T04:40:32.296Z,100953.78
2022-11-25T04:41:48.274Z,100950.03
2022-11-25T04:42:57.883Z,100947.31
2022-11-25T04:44:07.313Z,100951.63
2022-11-25T04:45:23.850Z,100951.09
2022-11-25T04:46:37.534Z,100955.97
2022-11-25T04:47:45.991Z,100955.41
2022-11-25T04:48:50.636Z,100955.72
2022-11-25T04:50:03.635Z,100948.94
2022-11-25T04:51:07.927Z,100957.88
2022-11-25T04:52:12.122Z,100954.59
2022-11-25T04:53:15.227Z,100958.41
2022-11-25T04:54:21.595Z,100951.38
2022-11-25T04:55:32.503Z,100958.13
2022-11-25T04:56:48.827Z,100960.31
2022-11-25T04:57:53.088Z,100956.78
2022-11-25T04:59:17.244Z,100953.50
2022-11-25T05:00:24.275Z,100957.28
2022-11-25T05:01:31.119Z,100955.66
2022-11-25T05:02:56.970Z,100954.91
2022-11-25T05:04:02.832Z,100957.03
2022-11-25T05:05:05.941Z,100955.41
2022-11-25T05:06:13.915Z,100956.50
2022-11-25T05:07:22.061Z,100951.91
2022-11-25T05:08:40.809Z,100954.34
2022-11-25T05:09:56.055Z,100948.94
2022-11-25T05:11:23.807Z,100949.47
2022-11-25T05:12:51.084Z,100956.78
2022-11-25T05:14:06.432Z,100954.63
2022-11-25T05:15:17.621Z,100955.69
2022-11-25T05:16:24.791Z,100957.56
2022-11-25T05:17:31.688Z,100954.91
2022-11-25T05:18:37.857Z,100952.19
2022-11-25T05:19:59.442Z,100951.38
2022-11-25T05:21:21.845Z,100948.94
2022-11-25T05:22:35.859Z,100957.84
2022-11-25T05:23:55.973Z,100952.72
2022-11-25T05:25:07.190Z,100949.47
2022-11-25T05:26:18.317Z,100955.97
2022-11-25T05:27:26.953Z,100957.03
2022-11-25T05:28:38.280Z,100963.53
2022-11-25T05:29:49.158Z,100958.69
2022-11-25T05:31:05.926Z,100961.38
2022-11-25T05:32:18.523Z,100960.81
2022-11-25T05:33:28.974Z,100964.34
2022-11-25T05:35:04.678Z,100962.72
2022-11-25T05:36:15.124Z,100967.06
2022-11-25T05:37:30.489Z,100964.59
2022-11-25T05:38:39.904Z,100976.00
2022-11-25T05:39:52.241Z,100967.88
2022-11-25T05:41:25.033Z,100969.50
2022-11-25T05:42:31.379Z,100966.81
2022-11-25T05:43:45.903Z,100973.03
2022-11-25T05:44:56.757Z,100970.00
2022-11-25T05:46:08.729Z,100971.13
2022-11-25T05:47:36.916Z,100975.69
2022-11-25T05:48:46.380Z,100975.94
2022-11-25T05:49:55.720Z,100973.25
2022-11-25T05:51:02.316Z,100974.06
2022-11-25T05:52:08.214Z,100979.22
2022-11-25T05:55:38.124Z,100981.09
2022-11-25T06:56:45.805Z,101027.38
2022-11-25T07:04:49.892Z,101029.00
2022-11-25T07:06:05.875Z,101035.78
2022-11-25T07:07:13.440Z,101031.19
2022-11-25T07:08:46.313Z,101029.03
2022-11-25T07:09:58.913Z,101032.81
2022-11-25T07:11:38.219Z,101042.56
2022-11-25T07:13:24.523Z,101036.59
2022-11-25T07:14:42.017Z,101046.31
2022-11-25T07:15:53.095Z,101043.09
2022-11-25T07:17:10.353Z,101050.66
2022-11-25T07:18:18.213Z,101044.16
2022-11-25T07:21:43.915Z,101047.41
2022-11-25T07:23:59.371Z,101049.03
2022-11-25T07:25:39.402Z,101050.13
2022-11-25T07:26:44.690Z,101055.00
2022-11-25T07:31:55.296Z,101052.81
2022-11-25T07:33:04.223Z,101047.44
2022-11-25T07:34:22.002Z,101056.06
2022-11-25T07:35:31.714Z,101055.00
2022-11-25T07:36:36.268Z,101049.31
2022-11-25T07:37:39.683Z,101062.56
2022-11-25T07:38:46.739Z,101048.78
2022-11-25T07:39:57.037Z,101055.53
2022-11-25T07:41:17.765Z,101053.38
2022-11-25T07:42:23.796Z,101058.78
2022-11-25T07:43:31.470Z,101058.78
2022-11-25T07:44:39.525Z,101061.50
2022-11-25T07:46:19.822Z,101059.88
2022-11-25T07:47:26.137Z,101062.31
2022-11-25T07:48:28.899Z,101066.09
2022-11-25T07:49:36.673Z,101067.44
2022-11-25T07:50:43.011Z,101061.75
2022-11-25T07:51:58.013Z,101065.56
2022-11-25T07:53:04.016Z,101060.66
2022-11-25T07:54:11.942Z,101067.44
2022-11-25T07:55:23.261Z,101069.63
2022-11-25T07:56:32.461Z,101067.44
2022-11-25T07:57:39.108Z,101066.09
2022-11-25T07:58:46.049Z,101066.38
2022-11-25T07:59:50.856Z,101069.59
2022-11-25T08:00:54.263Z,101076.63
2022-11-25T08:01:59.220Z,101076.63
2022-11-25T08:03:05.021Z,101071.78
2022-11-25T08:04:09.638Z,101072.06
2022-11-25T08:05:19.453Z,101073.41
2022-11-25T08:06:27.998Z,101070.69
2022-11-25T08:07:37.819Z,101072.84
2022-11-25T08:08:43.150Z,101072.31
2022-11-25T08:09:50.035Z,101073.41
2022-11-25T08:10:53.303Z,101070.97
2022-11-25T08:11:58.400Z,101073.41
2022-11-25T08:13:02.946Z,101077.19
2022-11-25T08:14:11.717Z,101075.28
2022-11-25T08:15:55.333Z,101071.78
2022-11-25T08:17:09.124Z,101076.13
2022-11-25T08:18:12.013Z,101073.94
2022-11-25T08:19:21.427Z,101077.19
2022-11-25T08:21:03.137Z,101077.19
2022-11-25T08:22:13.502Z,101076.13
2022-11-25T08:27:52.397Z,101095.81
2022-11-25T08:29:03.220Z,101086.91
2022-11-25T08:30:16.368Z,101090.44
2022-11-25T08:31:35.393Z,101090.16
2022-11-25T08:32:40.220Z,101099.63
2022-11-25T08:33:47.259Z,101085.84
2022-11-25T08:34:52.137Z,101083.41
2022-11-25T08:35:58.044Z,101091.50
2022-11-25T08:38:44.288Z,101078.25
2022-11-25T08:40:05.564Z,101086.63
2022-11-25T08:41:31.270Z,101085.81
2022-11-25T08:43:03.742Z,101090.16
2022-11-25T08:44:14.113Z,101087.72
2022-11-25T08:45:28.079Z,101086.38
2022-11-25T08:46:46.778Z,101092.88
2022-11-25T08:48:01.072Z,101095.00
2022-11-25T08:49:40.379Z,101086.91
2022-11-25T08:50:55.518Z,101093.94
2022-11-25T08:52:11.479Z,101090.16
2022-11-25T08:53:22.014Z,101089.63
2022-11-25T08:54:34.925Z,101089.91
2022-11-25T08:55:40.648Z,101086.94
2022-11-25T08:56:44.337Z,101090.16
2022-11-25T08:58:06.739Z,101090.72
2022-11-25T08:59:14.864Z,101089.38
2022-11-25T09:00:25.163Z,101093.44
2022-11-25T09:01:45.580Z,101091.81
2022-11-25T09:02:49.025Z,101093.41
2022-11-25T09:05:48.983Z,101093.16
2022-11-25T09:06:56.035Z,101098.31
2022-11-25T09:08:09.294Z,101104.81
2022-11-25T09:09:19.920Z,101101.53
2022-11-25T09:10:26.332Z,101103.72
2022-11-25T09:11:35.349Z,101096.13
2022-11-25T09:14:14.476Z,101096.13
2022-11-25T09:15:18.291Z,101102.34
2022-11-25T09:16:22.060Z,101103.13
2022-11-25T09:17:29.599Z,101096.09
2022-11-25T09:18:37.534Z,101107.75
2022-11-25T09:19:41.717Z,101090.72
2022-11-25T09:20:44.237Z,101099.88
2022-11-25T09:21:53.902Z,101097.16
2022-11-25T09:23:01.560Z,101102.56
2022-11-25T09:24:12.887Z,101100.97
2022-11-25T09:25:21.048Z,101096.66
2022-11-25T09:26:39.973Z,101098.78
2022-11-25T09:27:42.793Z,101095.56
2022-11-25T09:28:58.703Z,101097.19
2022-11-25T09:30:14.127Z,101093.38
2022-11-25T09:33:37.116Z,101092.59
2022-11-25T09:34:47.255Z,101090.72
2022-11-25T09:37:17.034Z,101090.66
2022-11-25T09:38:28.402Z,101094.47
2022-11-25T09:39:54.134Z,101092.06
2022-11-25T09:41:55.256Z,101088.00
2022-11-25T09:43:44.285Z,101087.72
2022-11-25T09:45:33.653Z,101089.09
2022-11-25T10:12:42.894Z,101101.53
2022-11-25T10:14:09.336Z,101091.00
2022-11-25T10:15:27.892Z,101094.78
2022-11-25T10:16:54.787Z,101094.22
2022-11-25T10:18:14.387Z,101096.13
2022-11-25T10:19:42.252Z,101099.38
2022-11-25T10:20:57.484Z,101103.72
2022-11-25T10:22:33.165Z,101095.06
2022-11-25T10:23:37.735Z,101100.47
2022-11-25T10:28:44.124Z,101111.81
2022-11-25T10:30:02.272Z,101114.53
2022-11-25T10:31:09.705Z,101113.44
2022-11-25T10:32:37.266Z,101115.59
2022-11-25T10:33:46.545Z,101120.44
2022-11-25T10:35:04.465Z,101124.25
2022-11-25T10:36:20.113Z,101120.75
2022-11-25T10:37:38.155Z,101126.97
2022-11-25T10:39:19.939Z,101127.75
2022-11-25T10:40:24.227Z,101125.59
2022-11-25T10:41:38.878Z,101123.19
2022-11-25T10:42:41.686Z,101135.88
2022-11-25T10:43:47.126Z,101122.38
2022-11-25T10:44:49.630Z,101128.34
2022-11-25T10:46:24.497Z,101136.47
2022-11-25T10:47:45.246Z,101128.34
2022-11-25T10:48:53.463Z,101144.03
2022-11-25T10:49:55.982Z,101137.78
2022-11-25T10:50:58.741Z,101134.84
2022-11-25T10:52:01.033Z,101137.03
2022-11-25T10:53:16.351Z,101140.53
2022-11-25T10:54:27.586Z,101134.00
2022-11-25T10:55:34.783Z,101139.47
2022-11-25T10:57:00.250Z,101137.03
2022-11-25T10:58:28.063Z,101149.50
2022-11-25T10:59:44.779Z,101150.81
2022-11-25T11:01:04.752Z,101149.72
2022-11-25T11:11:21.982Z,101151.66
2022-11-25T11:12:32.042Z,101140.28
2022-11-25T11:13:38.282Z,101147.59
2022-11-25T11:14:44.269Z,101148.94
2022-11-25T11:15:57.702Z,101139.75
2022-11-25T11:17:05.776Z,101143.28
2022-11-25T11:18:28.619Z,101148.38
2022-11-25T11:19:39.882Z,101147.03
2022-11-25T11:20:48.683Z,101152.72
2022-11-25T11:21:57.726Z,101151.91
2022-11-25T11:23:09.037Z,101141.88
2022-11-25T11:26:32.757Z,101147.59
2022-11-25T11:27:46.741Z,101143.75
2022-11-25T11:29:03.487Z,101150.28
2022-11-25T11:30:15.587Z,101141.09
2022-11-25T11:31:34.023Z,101143.22
2022-11-25T11:32:48.613Z,101150.84
2022-11-25T11:34:31.926Z,101142.16
2022-11-25T11:35:44.785Z,101144.63
2022-11-25T11:37:15.092Z,101143.53
2022-11-25T11:38:24.042Z,101149.47
2022-11-25T11:39:48.887Z,101143.28
2022-11-25T11:41:23.400Z,101144.03
2022-11-25T11:42:44.136Z,101149.22
2022-11-25T11:45:49.657Z,101153.78
2022-11-25T11:47:21.812Z,101152.44
2022-11-25T11:48:31.896Z,101153.56
2022-11-25T11:49:41.738Z,101155.44
2022-11-25T11:50:52.978Z,101161.41
2022-11-25T11:52:20.164Z,101157.31
2022-11-25T11:53:58.252Z,101156.78
2022-11-25T11:55:27.904Z,101166.81
2022-11-25T11:56:57.853Z,101170.59
2022-11-25T11:58:13.403Z,101175.19
2022-11-25T11:59:55.754Z,101177.13
2022-11-25T12:01:31.414Z,101182.25
2022-11-25T12:02:57.207Z,101182.78
2022-11-25T12:04:21.272Z,101181.16
2022-11-25T12:05:31.400Z,101179.00
2022-11-25T12:06:38.972Z,101187.06
2022-11-25T12:08:38.123Z,101184.34
2022-11-25T12:10:03.065Z,101180.06
2022-11-25T12:11:20.260Z,101185.47
2022-11-25T12:12:40.579Z,101187.63
2022-11-25T12:14:00.684Z,101183.28
2022-11-25T12:15:21.093Z,101188.72
2022-11-25T12:16:52.217Z,101191.97
2022-11-25T12:18:35.063Z,101186.28
2022-11-25T12:19:49.297Z,101183.28
2022-11-25T12:21:03.679Z,101189.78
2022-11-25T12:22:33.233Z,101178.44
2022-11-25T12:24:00.117Z,101183.84
2022-11-25T12:25:19.878Z,101189.53
2022-11-25T12:26:45.486Z,101179.00
2022-11-25T12:28:12.224Z,101182.78
2022-11-25T12:29:28.247Z,101188.16
2022-11-25T12:31:20.240Z,101189.22
2022-11-25T12:32:59.038Z,101183.00
2022-11-25T12:34:12.970Z,101183.84
2022-11-25T12:35:51.873Z,101191.97
2022-11-25T12:37:15.186Z,101181.66
2022-11-25T12:38:51.848Z,101191.41
2022-11-25T12:40:22.486Z,101195.19
2022-11-25T12:41:56.412Z,101194.63
2022-11-25T12:43:35.100Z,101196.81
2022-11-25T12:44:52.545Z,101194.97
2022-11-25T12:46:08.860Z,101197.06
2022-11-25T12:47:15.466Z,101196.59
2022-11-25T12:48:27.953Z,101188.69
2022-11-25T12:49:47.154Z,101195.19
2022-11-25T12:51:10.202Z,101203.59
2022-11-25T12:52:43.744Z,101204.72
2022-11-25T12:54:02.192Z,101206.28
2022-11-25T12:55:32.451Z,101207.63
2022-11-25T12:56:52.106Z,101196.88
2022-11-25T12:58:22.802Z,101214.16
2022-11-25T12:59:47.410Z,101209.50
2022-11-25T13:01:31.283Z,101208.41
2022-11-25T13:03:15.072Z,101217.91
2022-11-25T13:04:43.946Z,101213.63
2022-11-25T13:06:02.109Z,101210.34
2022-11-25T13:11:20.983Z,101220.03
2022-11-25T13:12:43.092Z,101221.16
2022-11-25T13:14:22.962Z,101218.47
2022-11-25T13:15:40.439Z,101229.28
2022-11-25T13:32:41.089Z,101228.50
2022-11-25T13:37:46.394Z,101233.09
2022-11-25T13:38:52.645Z,101235.78
2022-11-25T13:40:29.362Z,101247.19
2022-11-25T13:41:47.054Z,101233.63
2022-11-25T13:42:55.732Z,101237.72
2022-11-25T13:44:26.985Z,101239.06
2022-11-25T13:45:56.694Z,101250.47
2022-11-25T13:47:39.681Z,101239.56
2022-11-25T13:48:57.247Z,101232.00
2022-11-25T13:50:04.573Z,101248.53
2022-11-25T13:54:56.212Z,101249.81
2022-11-25T13:56:46.313Z,101240.13
2022-11-25T14:05:42.698Z,101240.69
2022-11-25T14:07:50.347Z,101250.94
2022-11-25T14:09:48.692Z,101265.00
2022-11-25T14:12:46.989Z,101257.41
2022-11-25T14:16:38.053Z,101250.94
2022-11-25T14:20:50.675Z,101250.09
2022-11-25T14:22:49.660Z,101255.78
2022-11-25T14:28:54.955Z,101242.53
2022-11-25T14:30:45.019Z,101255.81
2022-11-25T14:35:05.412Z,101266.59
2022-11-25T14:40:13.678Z,101271.53
2022-11-25T14:53:08.329Z,101285.56
2022-11-25T14:55:29.915Z,101293.13
2022-11-25T14:57:00.910Z,101287.41
2022-11-25T14:58:21.078Z,101282.28
2022-11-25T15:14:22.514Z,101278.50
2022-11-25T15:16:36.518Z,101288.25
2022-11-25T15:18:09.604Z,101284.00
2022-11-25T15:21:32.546Z,101288.59
2022-11-25T15:22:55.048Z,101290.50
2022-11-25T15:24:11.538Z,101288.81
2022-11-25T15:25:21.290Z,101286.13
2022-11-25T15:26:44.908Z,101293.19
2022-11-25T15:27:55.728Z,101287.78
2022-11-25T15:29:17.157Z,101296.97
2022-11-25T15:30:26.670Z,101291.56
2022-11-25T15:33:39.029Z,101305.56
2022-11-25T15:35:03.295Z,101290.19
2022-11-25T15:36:27.725Z,101300.50
2022-11-25T15:37:37.796Z,101299.66
2022-11-25T15:38:43.261Z,101297.44
2022-11-25T15:39:58.574Z,101305.75
2022-11-25T15:41:11.303Z,101309.34
2022-11-25T15:42:32.180Z,101303.91
2022-11-25T15:44:47.517Z,101309.88
2022-11-25T15:45:56.353Z,101299.59
2022-11-25T15:47:26.676Z,101301.75
2022-11-25T15:48:49.904Z,101314.78
2022-11-25T15:50:13.536Z,101303.38
2022-11-25T15:51:36.138Z,101307.66
2022-11-25T15:53:09.941Z,101312.66
2022-11-25T15:54:47.761Z,101307.69
2022-11-25T15:56:12.646Z,101315.81
2022-11-25T15:57:28.433Z,101303.66
2022-11-25T15:58:51.249Z,101311.75
2022-11-25T16:00:19.327Z,101311.53
2022-11-25T16:01:31.443Z,101310.88
2022-11-25T16:02:51.246Z,101301.19
2022-11-25T16:43:47.455Z,101326.81
2022-11-25T16:44:54.008Z,101319.25
2022-11-25T16:46:07.829Z,101324.97
2022-11-25T16:47:22.884Z,101336.84
2022-11-25T16:48:34.199Z,101319.75
2022-11-25T16:49:49.742Z,101314.63
2022-11-25T17:47:49.287Z,101332.41
2022-11-25T18:15:01.918Z,101327.97
2022-11-25T18:38:44.708Z,101357.06
2022-11-25T18:39:53.287Z,101354.69
2022-11-25T18:47:54.708Z,101352.97
2022-11-25T18:49:06.210Z,101349.22
2022-11-25T18:50:35.572Z,101352.47
2022-11-25T18:52:22.728Z,101360.13
2022-11-25T18:53:37.259Z,101358.44
2022-11-25T18:55:20.976Z,101370.28
2022-11-25T19:29:26.697Z,101384.03
2022-11-25T19:30:39.786Z,101389.97
2022-11-25T19:31:46.438Z,101396.88
2022-11-25T19:33:04.564Z,101395.00
2022-11-25T19:34:26.472Z,101397.97
2022-11-25T19:35:38.494Z,101389.25
2022-11-25T19:36:41.260Z,101402.25
2022-11-25T19:37:44.883Z,101402.75
2022-11-25T19:38:47.606Z,101401.91
2022-11-25T19:39:56.163Z,101395.09
2022-11-25T19:40:59.753Z,101396.19
2022-11-25T19:42:01.785Z,101396.13
2022-11-25T19:43:11.515Z,101398.13
2022-11-25T19:44:15.446Z,101398.13
2022-11-25T19:45:20.264Z,101394.66
2022-11-25T19:46:29.983Z,101400.59
2022-11-25T19:47:32.568Z,101396.00
2022-11-25T19:48:39.529Z,101393.00
2022-11-25T19:49:41.995Z,101396.81
2022-11-25T19:50:49.088Z,101396.59
2022-11-25T19:51:54.989Z,101389.78
2022-11-25T19:52:59.014Z,101396.34
2022-11-25T19:54:02.159Z,101394.41
2022-11-25T19:55:24.345Z,101396.97
2022-11-25T19:56:47.465Z,101387.97
2022-11-25T19:57:50.970Z,101405.94
2022-11-25T19:59:06.449Z,101393.19
2022-11-25T20:00:17.732Z,101395.34
2022-11-25T20:01:28.515Z,101386.16
2022-11-25T20:02:37.734Z,101385.09
2022-11-25T20:04:07.415Z,101391.09
2022-11-25T20:05:25.821Z,101395.16
2022-11-25T20:06:41.252Z,101397.53
2022-11-25T20:07:52.525Z,101392.03
2022-11-25T20:09:20.428Z,101395.84
2022-11-25T20:10:48.994Z,101396.03
2022-11-25T20:12:13.621Z,101393.50
2022-11-25T20:14:07.990Z,101395.84
2022-11-25T20:16:02.887Z,101388.38
2022-11-25T20:17:38.064Z,101403.06
2022-11-25T20:18:59.507Z,101403.28
2022-11-25T20:21:06.168Z,101411.91
2022-11-25T20:22:18.268Z,101406.41
2022-11-25T20:23:40.049Z,101409.06
2022-11-25T20:24:48.429Z,101410.47
2022-11-25T20:25:51.037Z,101413.31
2022-11-25T20:26:53.775Z,101405.53
2022-11-25T20:27:58.636Z,101409.00
2022-11-25T20:29:01.328Z,101413.38
2022-11-25T20:30:15.588Z,101402.50
2022-11-25T20:31:19.129Z,101404.44
2022-11-25T20:32:35.115Z,101406.13
2022-11-25T20:33:40.614Z,101414.25
2022-11-25T20:34:45.663Z,101420.13
2022-11-25T20:35:53.711Z,101421.69
2022-11-25T20:36:57.609Z,101433.03
2022-11-25T20:38:01.513Z,101424.31
2022-11-25T20:39:05.213Z,101420.50
2022-11-25T20:40:21.625Z,101424.44
2022-11-25T20:41:27.974Z,101421.41
2022-11-25T20:42:32.017Z,101427.63
2022-11-25T20:43:41.978Z,101418.78
2022-11-25T20:44:47.183Z,101420.63
2022-11-25T20:46:06.440Z,101420.13
2022-11-25T20:47:19.523Z,101427.75
2022-11-25T20:48:23.202Z,101429.38
2022-11-25T20:49:29.519Z,101426.16
2022-11-25T20:50:38.126Z,101428.75
2022-11-25T20:51:43.578Z,101435.84
2022-11-25T20:52:47.985Z,101427.72
2022-11-25T20:53:58.238Z,101428.81
2022-11-25T20:55:05.819Z,101431.56
2022-11-25T20:56:13.938Z,101439.94
2022-11-25T20:57:16.070Z,101424.38
2022-11-25T20:58:45.845Z,101428.41